Time;durP1;ratioP1;P1;durP2;ratioP2;P2;SDS_P1;SDS_P2;PMS_P1;PMS_P2;Temp;Humidity;BMP_temperature;BMP_pressure;BME280_temperature;BME280_humidity;BME280_pressure;Samples;Min_cycle;Max_cycle;Signal;HPM_P1;HPM_P2
2022/02/02 00:02:24;;;;;;;26.77;8.00;;;;;;;7.44;73.73;99935.00;5060089;28;20390;-75
2022/02/02 00:04:54;;;;;;;31.57;7.43;;;;;;;7.37;73.11;99933.22;5059976;28;20426;-74
2022/02/02 00:09:52;;;;;;;31.97;9.50;;;;;;;7.38;72.72;99929.78;5060130;28;20982;-78
2022/02/02 00:12:25;;;;;;;11.70;5.37;;;;;;;11.25;74.88;99892.22;5060024;28;20207;-62
2022/02/02 00:18:02;;;;;;;28.80;8.90;;;;;;;12.35;64.83;99923.47;5026886;28;20398;-61
2022/02/02 00:20:33;;;;;;;26.07;7.70;;;;;;;13.39;58.79;99912.56;5060409;28;20473;-63
2022/02/02 00:23:01;;;;;;;21.10;8.13;;;;;;;11.68;55.81;99923.22;5059904;28;20488;-78
2022/02/02 00:25:35;;;;;;;33.73;8.00;;;;;;;8.59;64.20;99939.31;5042377;28;20427;-78
2022/02/02 00:28:03;;;;;;;34.10;9.00;;;;;;;7.91;67.04;99933.66;5059837;28;20485;-78
2022/02/02 00:30:33;;;;;;;33.13;9.30;;;;;;;7.92;67.85;99948.38;5059695;28;20437;-76
2022/02/02 00:33:13;;;;;;;30.40;8.13;;;;;;;7.69;68.54;99940.44;5042979;28;20399;-78
2022/02/02 00:35:43;;;;;;;33.10;9.23;;;;;;;7.72;68.79;99938.72;5044302;28;20464;-75
2022/02/02 00:38:08;;;;;;;34.97;9.13;;;;;;;7.75;68.50;99951.72;5059819;28;20406;-74
2022/02/02 00:40:34;;;;;;;24.50;7.67;;;;;;;7.28;71.39;99956.44;5059434;28;20419;-75
2022/02/02 00:42:59;;;;;;;36.27;9.27;;;;;;;6.96;72.04;99949.22;5059212;28;20174;-73
2022/02/02 00:45:31;;;;;;;33.10;7.00;;;;;;;7.18;72.28;99965.84;5059777;28;20177;-77
2022/02/02 00:47:57;;;;;;;21.50;7.70;;;;;;;7.17;72.60;99974.47;5059437;28;20447;-75
2022/02/02 00:50:24;;;;;;;24.80;6.87;;;;;;;6.72;74.43;99967.06;5059391;28;20453;-73
2022/02/02 00:52:51;;;;;;;28.77;7.10;;;;;;;6.93;74.02;99964.69;5059941;28;20182;-73
2022/02/02 00:55:18;;;;;;;24.93;7.30;;;;;;;7.13;73.58;99971.00;5058798;28;20383;-74
2022/02/02 00:57:43;;;;;;;24.50;7.83;;;;;;;7.03;73.97;99951.00;5059237;28;20798;-74
2022/02/02 01:00:09;;;;;;;28.40;8.13;;;;;;;7.07;73.76;99950.19;5059508;28;20394;-74
2022/02/02 01:02:34;;;;;;;37.03;8.73;;;;;;;7.23;72.51;99951.22;5059157;28;20165;-74
2022/02/02 01:04:59;;;;;;;28.83;9.00;;;;;;;7.32;71.90;99951.34;5059001;28;20527;-75
2022/02/02 01:07:48;;;;;;;43.03;9.30;;;;;;;6.96;72.59;99950.06;5059464;28;20288;-76
2022/02/02 01:10:18;;;;;;;37.17;9.90;;;;;;;6.82;73.03;99941.25;5043908;28;20262;-75
2022/02/02 01:16:11;;;;;;;29.70;8.23;;;;;;;7.51;71.84;99956.66;5058835;28;20375;-75
2022/02/02 01:18:20;;;;;;;26.53;8.17;;;;;;;7.02;72.86;99965.69;5058792;28;20248;-74
2022/02/02 01:28:29;;;;;;;28.00;8.47;;;;;;;7.10;71.74;99972.69;5058191;28;20823;-78
2022/02/02 01:30:55;;;;;;;39.83;11.37;;;;;;;7.44;70.30;99967.84;5058525;28;20434;-74
2022/02/02 01:33:21;;;;;;;42.03;10.07;;;;;;;7.06;71.68;99977.84;5058478;28;20192;-74
2022/02/02 01:35:46;;;;;;;28.03;9.27;;;;;;;7.33;70.04;99980.72;5058223;28;20544;-73
2022/02/02 01:38:12;;;;;;;24.97;8.40;;;;;;;7.76;68.70;99986.31;5058439;28;20216;-75
2022/02/02 01:40:43;;;;;;;27.50;7.90;;;;;;;7.16;70.47;99990.91;5058915;28;20189;-75
2022/02/02 01:43:22;;;;;;;35.57;8.97;;;;;;;7.14;70.36;99995.19;5058450;28;20423;-75
2022/02/02 01:45:53;;;;;;;28.77;6.63;;;;;;;6.92;70.53;99992.34;5042954;28;20478;-72
2022/02/02 01:53:33;;;;;;;22.60;7.83;;;;;;;6.88;69.20;99985.38;5058061;28;20426;-73
2022/02/02 01:56:00;;;;;;;22.07;7.20;;;;;;;6.95;69.61;99987.19;5058130;28;20184;-73
2022/02/02 02:00:57;;;;;;;23.30;6.57;;;;;;;6.89;68.54;99990.59;5042089;28;20452;-82
2022/02/02 02:03:22;;;;;;;24.60;7.27;;;;;;;7.23;68.31;100000.50;5059566;28;20431;-81
2022/02/02 02:05:47;;;;;;;24.00;7.07;;;;;;;7.17;68.01;100005.59;5066486;28;20185;-81
2022/02/02 02:08:14;;;;;;;22.00;6.43;;;;;;;7.35;67.86;100010.13;5045871;28;20425;-83
2022/02/02 02:10:39;;;;;;;19.13;6.87;;;;;;;6.89;69.29;100026.00;5066362;28;20367;-83
2022/02/02 02:13:16;;;;;;;18.80;6.17;;;;;;;7.14;69.50;100026.28;5059241;28;20432;-79
2022/02/02 02:15:43;;;;;;;27.93;6.93;;;;;;;6.99;69.12;100022.66;5058302;28;20180;-76
2022/02/02 02:18:09;;;;;;;21.30;6.33;;;;;;;6.81;69.93;100032.81;5058423;28;20847;-79
2022/02/02 02:20:35;;;;;;;17.17;6.10;;;;;;;6.93;69.64;100030.38;5057945;28;20514;-80
2022/02/02 02:23:00;;;;;;;19.20;5.80;;;;;;;7.02;69.13;100025.31;5058307;28;20181;-82
2022/02/02 02:25:27;;;;;;;19.30;6.20;;;;;;;7.35;68.06;100028.28;5057724;28;20420;-81
2022/02/02 02:27:55;;;;;;;18.27;5.27;;;;;;;7.00;68.61;100031.31;5057692;28;20229;-76
2022/02/02 02:30:39;;;;;;;17.43;5.70;;;;;;;7.07;69.08;100021.03;5058217;28;20448;-78
2022/02/02 02:36:09;;;;;;;24.03;6.90;;;;;;;7.13;68.17;100029.72;5070471;28;20488;-73
2022/02/02 02:57:44;;;;;;;20.30;5.83;;;;;;;7.30;67.21;100033.41;5078055;28;20401;-79
2022/02/02 03:00:32;;;;;;;19.90;6.40;;;;;;;7.15;67.61;100043.59;5078154;28;20436;-80
2022/02/02 03:30:18;;;;;;;27.63;6.63;;;;;;;7.31;66.69;100055.03;5081246;28;20512;-79
2022/02/02 03:49:24;;;;;;;24.50;6.80;;;;;;;7.05;67.71;100069.41;5069481;28;20711;-77
2022/02/02 03:49:39;;;;;;;25.33;7.00;;;;;;;6.97;68.14;100080.50;5032459;28;20495;-75
2022/02/02 04:02:33;;;;;;;17.17;7.40;;;;;;;7.00;68.88;100089.19;5060787;28;20452;-78
2022/02/02 04:07:51;;;;;;;17.00;6.47;;;;;;;6.88;68.64;100096.78;5060846;28;20387;-79
2022/02/02 04:10:17;;;;;;;23.73;6.60;;;;;;;7.28;68.29;100096.44;5060573;28;20434;-78
2022/02/02 04:54:16;;;;;;;28.30;7.17;;;;;;;7.08;70.56;100136.81;5059839;28;20413;-78
2022/02/02 05:07:28;;;;;;;16.83;5.47;;;;;;;6.95;72.02;100157.34;5069020;28;20420;-80
2022/02/02 05:20:52;;;;;;;15.77;5.30;;;;;;;7.14;71.45;100202.56;5061381;28;20537;-80
2022/02/02 05:44:53;;;;;;;20.60;7.70;;;;;;;7.31;69.97;100211.47;5058848;28;20424;-79
2022/02/02 05:52:41;;;;;;;13.60;5.50;;;;;;;7.46;69.36;100225.50;5058837;28;20455;-80
2022/02/02 05:55:07;;;;;;;15.10;4.63;;;;;;;7.35;69.21;100243.50;5041013;28;20420;-77
2022/02/02 05:57:41;;;;;;;17.67;5.63;;;;;;;7.51;69.68;100250.66;5058286;28;20423;-77
2022/02/02 06:00:07;;;;;;;22.03;5.50;;;;;;;6.90;70.33;100260.91;5042576;28;20166;-78
2022/02/02 06:02:38;;;;;;;18.53;5.13;;;;;;;6.92;69.84;100267.00;5058967;28;20412;-78
2022/02/02 06:05:05;;;;;;;12.80;4.47;;;;;;;7.47;69.70;100258.34;5058431;28;20439;-77
2022/02/02 06:07:33;;;;;;;11.80;4.33;;;;;;;7.51;67.97;100263.63;5058222;28;20718;-77
2022/02/02 06:09:58;;;;;;;14.07;4.10;;;;;;;6.74;69.97;100271.03;5060305;28;20517;-76
2022/02/02 06:12:24;;;;;;;12.83;4.80;;;;;;;6.94;69.32;100273.09;5058610;28;20439;-77
2022/02/02 06:14:50;;;;;;;9.33;4.70;;;;;;;6.58;70.10;100271.59;5058138;28;20209;-78
2022/02/02 06:17:16;;;;;;;16.50;4.43;;;;;;;6.99;69.43;100283.53;5058239;28;20185;-79
2022/02/02 06:19:41;;;;;;;12.50;4.40;;;;;;;6.92;70.22;100290.34;5058706;28;20375;-78
2022/02/02 06:22:15;;;;;;;10.53;4.40;;;;;;;7.24;68.68;100288.28;5057977;28;20173;-78
2022/02/02 06:24:48;;;;;;;14.27;5.43;;;;;;;6.68;69.65;100294.22;5057788;28;20177;-78
2022/02/02 06:27:20;;;;;;;14.00;4.50;;;;;;;6.65;69.91;100296.75;5057896;28;20717;-78
2022/02/02 06:29:46;;;;;;;16.80;4.57;;;;;;;6.89;69.29;100308.44;5057987;28;20521;-78
2022/02/02 06:32:14;;;;;;;16.70;4.23;;;;;;;6.80;69.83;100318.63;5040635;28;20428;-76
2022/02/02 06:34:45;;;;;;;13.93;4.80;;;;;;;6.63;71.54;100332.16;5057559;28;20240;-77
2022/02/02 06:37:11;;;;;;;24.20;4.97;;;;;;;7.04;70.78;100337.19;5058404;28;20387;-79
2022/02/02 06:39:38;;;;;;;17.57;5.20;;;;;;;6.84;69.46;100348.94;5058035;28;20864;-78
2022/02/02 06:42:05;;;;;;;23.07;4.93;;;;;;;6.71;70.15;100366.84;5057922;28;20420;-77
2022/02/02 06:44:34;;;;;;;19.60;4.70;;;;;;;6.48;70.11;100374.16;5060833;28;20404;-80
2022/02/02 06:47:00;;;;;;;14.47;5.07;;;;;;;6.71;70.02;100376.31;5060015;28;20439;-78
2022/02/02 06:49:26;;;;;;;14.83;4.63;;;;;;;6.77;69.61;100379.03;5042674;28;20844;-79
2022/02/02 06:52:04;;;;;;;12.20;4.43;;;;;;;6.48;69.05;100383.63;5065394;28;20444;-79
2022/02/02 06:54:52;;;;;;;9.27;4.20;;;;;;;6.84;69.06;100390.38;5028920;28;20176;-77
2022/02/02 06:57:37;;;;;;;9.60;4.60;;;;;;;6.63;68.97;100396.00;5061852;28;20405;-77
2022/02/02 07:00:17;;;;;;;19.73;5.30;;;;;;;7.27;69.99;100414.50;5045821;28;20832;-76
2022/02/02 07:02:58;;;;;;;14.97;4.93;;;;;;;7.00;68.31;100413.16;5046460;28;20893;-77
2022/02/02 07:05:33;;;;;;;18.20;5.47;;;;;;;6.76;68.66;100436.00;5061682;28;20449;-77
2022/02/02 07:08:28;;;;;;;13.53;4.43;;;;;;;6.89;68.80;100435.41;5061398;28;20476;-78
2022/02/02 07:16:25;;;;;;;11.93;4.63;;;;;;;7.19;70.41;100465.34;5061567;28;20434;-82
2022/02/02 07:29:33;;;;;;;17.50;4.97;;;;;;;6.78;71.18;100471.47;5061357;28;20546;-80
2022/02/02 07:32:11;;;;;;;13.67;4.70;;;;;;;6.88;70.60;100475.97;5061112;28;20420;-79
2022/02/02 07:35:33;;;;;;;16.70;4.90;;;;;;;6.60;70.60;100481.41;5060981;28;20471;-78
2022/02/02 07:37:34;;;;;;;21.87;7.00;;;;;;;6.91;69.76;100490.72;5046713;28;20398;-79
2022/02/02 07:40:04;;;;;;;9.27;4.90;;;;;;;6.80;70.31;100497.41;5061059;28;20885;-79
2022/02/02 07:42:30;;;;;;;17.87;5.43;;;;;;;6.90;70.10;100507.97;5060860;28;20424;-76
2022/02/02 07:45:11;;;;;;;16.83;5.67;;;;;;;6.86;70.40;100513.94;5043105;28;20875;-80
2022/02/02 07:47:42;;;;;;;19.67;4.87;;;;;;;7.27;70.58;100515.63;5060797;28;20424;-77
2022/02/02 07:50:09;;;;;;;14.73;4.30;;;;;;;7.11;69.19;100521.34;5060663;28;20466;-77
2022/02/02 07:52:35;;;;;;;16.80;5.17;;;;;;;6.72;70.49;100520.53;5060760;28;20490;-79
2022/02/02 07:55:03;;;;;;;18.00;5.33;;;;;;;6.90;69.43;100520.03;5060702;28;20420;-77
2022/02/02 07:57:29;;;;;;;14.80;5.03;;;;;;;7.45;67.50;100537.56;5063396;28;20387;-76
2022/02/02 08:00:00;;;;;;;14.13;4.80;;;;;;;7.21;67.61;100546.59;5069322;28;20431;-76
2022/02/02 08:02:50;;;;;;;18.60;4.77;;;;;;;10.90;70.58;100532.22;5068804;28;20178;-64
2022/02/02 08:05:14;;;;;;;12.60;4.53;;;;;;;11.75;58.23;100535.09;5063796;28;20457;-64
2022/02/02 08:07:45;;;;;;;9.87;4.50;;;;;;;10.26;64.09;100541.34;5060247;28;20519;-66
2022/02/02 08:10:22;;;;;;;15.23;4.50;;;;;;;11.89;58.65;100537.72;5043879;28;20761;-68
2022/02/02 08:12:51;;;;;;;20.40;5.97;;;;;;;8.95;58.60;100564.25;5060582;28;20422;-76
2022/02/02 08:15:19;;;;;;;15.03;4.40;;;;;;;7.70;61.80;100557.94;5059920;28;20428;-77
2022/02/02 08:17:45;;;;;;;11.87;4.50;;;;;;;7.60;62.67;100566.38;5059943;28;20503;-76
2022/02/02 08:20:11;;;;;;;14.20;5.03;;;;;;;7.54;63.75;100567.16;5060434;28;20381;-77
2022/02/02 08:22:39;;;;;;;14.80;4.60;;;;;;;7.23;64.50;100576.03;5060017;28;20417;-76
2022/02/02 08:25:06;;;;;;;11.03;5.43;;;;;;;7.35;64.01;100575.44;5059737;28;20185;-77
2022/02/02 08:27:38;;;;;;;14.33;5.23;;;;;;;7.34;63.87;100582.31;5060182;28;20418;-77
2022/02/02 08:30:09;;;;;;;14.83;5.13;;;;;;;7.17;64.35;100569.03;5043517;28;20434;-79
2022/02/02 08:32:42;;;;;;;16.43;4.37;;;;;;;7.40;64.78;100569.47;5059755;28;20427;-77
2022/02/02 08:35:09;;;;;;;17.77;6.30;;;;;;;7.78;62.90;100581.44;5069269;28;20719;-79
2022/02/02 08:37:37;;;;;;;16.13;5.20;;;;;;;8.37;61.75;100579.84;5062452;28;20419;-77
2022/02/02 08:40:27;;;;;;;21.80;5.70;;;;;;;8.46;61.57;100593.00;5077584;28;20451;-81
2022/02/02 08:42:49;;;;;;;19.93;5.73;;;;;;;8.18;61.57;100607.22;5058699;28;20810;-74
2022/02/02 08:45:27;;;;;;;13.00;4.30;;;;;;;8.40;62.13;100588.56;5059276;28;20391;-74
2022/02/02 08:48:01;;;;;;;13.33;4.70;;;;;;;12.08;65.09;100593.50;5059612;28;20236;-63
2022/02/02 08:53:16;;;;;;;13.87;5.10;;;;;;;11.16;57.51;100607.13;5044277;28;20494;-65
2022/02/02 08:56:13;;;;;;;11.43;4.47;;;;;;;8.91;59.51;100625.72;5059333;28;20420;-75
2022/02/02 08:58:43;;;;;;;13.83;5.20;;;;;;;9.38;59.04;100637.66;5070908;28;20504;-76
2022/02/02 09:01:15;;;;;;;22.33;6.80;;;;;;;9.06;58.90;100627.69;5079197;28;20696;-76
2022/02/02 09:06:25;;;;;;;21.70;5.40;;;;;;;8.16;60.96;100646.16;5078839;28;20404;-75
2022/02/02 09:08:59;;;;;;;12.00;4.50;;;;;;;8.69;60.35;100647.94;5078979;28;20494;-74
2022/02/02 09:35:34;;;;;;;14.10;5.40;;;;;;;10.37;53.08;100661.34;5078452;28;20538;-74
2022/02/02 09:38:03;;;;;;;14.43;5.33;;;;;;;10.85;51.66;100674.75;5078607;28;20848;-76
2022/02/02 09:43:20;;;;;;;19.00;6.53;;;;;;;11.79;48.61;100677.88;5063021;28;20419;-78
2022/02/02 09:45:49;;;;;;;16.80;5.10;;;;;;;11.97;47.51;100682.31;5078296;28;20459;-78
2022/02/02 09:48:25;;;;;;;14.10;4.37;;;;;;;12.10;47.27;100678.00;5078327;28;20393;-78
2022/02/02 09:50:55;;;;;;;22.43;7.10;;;;;;;10.78;50.29;100699.91;5078461;28;20458;-78
2022/02/02 09:53:41;;;;;;;17.20;4.50;;;;;;;11.77;48.69;100693.56;5078655;28;20429;-77
2022/02/02 09:58:58;;;;;;;13.60;5.17;;;;;;;12.12;47.30;100703.28;5078653;28;20818;-82
2022/02/02 10:04:36;;;;;;;10.20;4.17;;;;;;;12.45;46.85;100714.66;5078018;28;20798;-78
2022/02/02 10:10:37;;;;;;;14.70;4.50;;;;;;;11.51;47.77;100750.00;5078331;28;20508;-83
2022/02/02 10:13:45;;;;;;;15.67;4.83;;;;;;;10.49;50.65;100762.22;5077476;28;20907;-78
2022/02/02 10:16:21;;;;;;;15.17;4.73;;;;;;;10.08;52.46;100777.38;5077988;28;20389;-76
2022/02/02 10:18:49;;;;;;;12.17;5.13;;;;;;;9.36;52.47;100787.69;5078002;28;20513;-77
2022/02/02 10:21:29;;;;;;;16.80;5.20;;;;;;;10.08;51.90;100786.91;5078061;28;20659;-78
2022/02/02 10:23:54;;;;;;;15.17;4.97;;;;;;;9.35;53.65;100792.84;5077889;28;20398;-79
2022/02/02 10:26:21;;;;;;;11.87;4.30;;;;;;;10.15;51.97;100795.66;5077798;28;20438;-76
2022/02/02 10:28:47;;;;;;;8.23;4.00;;;;;;;9.78;51.84;100807.38;5077817;28;20402;-76
2022/02/02 10:31:13;;;;;;;12.37;4.20;;;;;;;9.58;52.20;100808.81;5077349;28;20970;-78
2022/02/02 10:33:39;;;;;;;12.20;4.33;;;;;;;9.17;52.78;100827.25;5077307;28;20600;-76
2022/02/02 10:36:17;;;;;;;12.23;4.30;;;;;;;9.92;52.03;100814.50;5077065;28;20242;-74
2022/02/02 10:39:08;;;;;;;19.30;4.00;;;;;;;10.00;51.13;100807.66;5098025;28;20722;-73
2022/02/02 10:41:56;;;;;;;11.60;4.13;;;;;;;10.09;51.18;100820.81;5097790;28;20446;-75
2022/02/02 10:44:38;;;;;;;19.57;3.90;;;;;;;10.55;49.29;100809.19;5097931;28;20393;-72
2022/02/02 10:47:19;;;;;;;10.03;4.60;;;;;;;10.21;49.50;100820.06;5097595;28;20440;-73
2022/02/02 10:49:55;;;;;;;9.00;3.90;;;;;;;9.80;50.99;100828.22;5082326;28;20515;-72
2022/02/02 10:52:59;;;;;;;10.90;4.07;;;;;;;10.24;49.99;100829.66;5097994;28;20384;-72
2022/02/02 10:55:55;;;;;;;12.53;3.90;;;;;;;10.25;49.82;100821.84;5097404;28;20392;-72
2022/02/02 11:01:09;;;;;;;8.70;3.90;;;;;;;11.08;46.88;100829.72;5101484;28;20389;-75
2022/02/02 11:09:04;;;;;;;8.57;3.70;;;;;;;12.34;44.67;100839.28;5082879;28;20418;-78
2022/02/02 11:11:30;;;;;;;10.60;3.97;;;;;;;11.68;44.88;100852.81;5098089;28;20418;-72
2022/02/02 11:14:08;;;;;;;9.30;3.67;;;;;;;11.48;46.02;100854.41;5097356;28;20430;-76
2022/02/02 11:16:35;;;;;;;12.40;3.73;;;;;;;11.25;46.21;100860.31;5097482;28;20397;-76
2022/02/02 11:19:02;;;;;;;7.03;3.73;;;;;;;10.40;49.14;100864.63;5066754;28;20462;-73
2022/02/02 11:21:34;;;;;;;9.87;4.07;;;;;;;10.73;47.94;100869.38;5077054;28;20401;-73
2022/02/02 11:24:13;;;;;;;17.07;5.50;;;;;;;10.42;48.24;100887.25;5077092;28;20394;-73
2022/02/02 11:26:45;;;;;;;10.43;4.30;;;;;;;10.77;47.76;100891.13;5059793;28;20459;-72
2022/02/02 11:29:36;;;;;;;9.73;4.13;;;;;;;10.47;48.69;100896.84;5077360;28;20783;-72
2022/02/02 11:32:05;;;;;;;10.53;4.13;;;;;;;10.11;49.70;100907.66;5077325;28;20502;-73
2022/02/02 11:34:30;;;;;;;16.93;4.20;;;;;;;11.63;46.40;100901.50;5076982;28;20477;-72
2022/02/02 11:36:56;;;;;;;14.13;3.97;;;;;;;10.87;47.32;100905.16;5077306;28;20416;-72
2022/02/02 11:39:42;;;;;;;11.47;4.00;;;;;;;10.40;47.63;100907.19;5080607;28;20408;-72
2022/02/02 11:42:16;;;;;;;9.00;4.20;;;;;;;10.27;49.09;100924.38;5080746;28;20177;-72
2022/02/02 11:44:53;;;;;;;7.53;3.57;;;;;;;9.75;50.71;100941.81;5064454;28;20426;-71
2022/02/02 11:47:39;;;;;;;15.13;4.40;;;;;;;9.77;51.85;100938.41;5065114;28;20489;-75
2022/02/02 11:50:06;;;;;;;14.43;4.40;;;;;;;10.21;50.33;100939.03;5080934;28;20493;-75
2022/02/02 11:52:57;;;;;;;9.37;3.87;;;;;;;10.04;50.79;100947.50;5081273;28;20788;-70
2022/02/02 11:55:31;;;;;;;14.40;4.50;;;;;;;9.97;51.61;100958.66;5076893;28;20431;-75
2022/02/02 11:58:12;;;;;;;11.00;4.13;;;;;;;10.29;50.78;100953.91;5080519;28;20386;-69
2022/02/02 12:00:52;;;;;;;7.77;4.20;;;;;;;10.58;50.63;100952.59;5080477;28;20419;-80
2022/02/02 12:03:40;;;;;;;14.53;4.60;;;;;;;10.48;51.09;100959.44;5080434;28;20874;-76
2022/02/02 12:06:24;;;;;;;14.93;4.10;;;;;;;8.96;54.96;100976.84;5080455;28;20408;-76
2022/02/02 12:11:44;;;;;;;22.90;6.37;;;;;;;10.10;54.53;100965.81;5083462;28;20901;-83
2022/02/02 12:35:57;;;;;;;13.60;4.20;;;;;;;9.95;52.12;100987.28;5064975;28;20408;-76
2022/02/02 12:50:01;;;;;;;10.33;3.63;;;;;;;10.42;50.81;101009.75;5096454;28;20459;-74
2022/02/02 12:56:04;;;;;;;10.10;3.77;;;;;;;10.11;51.88;101013.59;5079278;28;20412;-75
2022/02/02 13:03:07;;;;;;;8.00;3.60;;;;;;;9.51;53.00;101021.25;5078943;28;20415;-72
2022/02/02 13:05:35;;;;;;;13.13;3.70;;;;;;;10.02;52.49;101024.72;5079234;28;20641;-76
2022/02/02 13:08:01;;;;;;;9.43;4.00;;;;;;;10.48;51.51;101023.72;5079538;28;20374;-75
2022/02/02 13:10:29;;;;;;;10.33;4.00;;;;;;;10.41;51.41;101028.84;5079081;28;20438;-79
2022/02/02 13:13:09;;;;;;;17.20;3.63;;;;;;;10.60;50.62;101026.50;5079278;28;20415;-82
2022/02/02 13:18:19;;;;;;;4.17;3.17;;;;;;;10.19;50.69;101043.25;5079131;28;20791;-80
2022/02/02 13:20:54;;;;;;;6.93;3.53;;;;;;;9.57;51.84;101042.19;5078199;28;20467;-77
2022/02/02 13:23:35;;;;;;;8.43;4.00;;;;;;;10.02;51.13;101045.56;5078967;28;20490;-74
2022/02/02 13:26:05;;;;;;;12.70;3.93;;;;;;;9.71;52.62;101046.75;5078691;28;20397;-74
2022/02/02 13:34:05;;;;;;;8.60;4.00;;;;;;;9.94;52.50;101049.75;5078252;28;20662;-77
2022/02/02 13:42:36;;;;;;;7.73;3.40;;;;;;;9.65;52.06;101060.53;5052025;28;20430;-79
2022/02/02 13:42:52;;;;;;;11.07;3.60;;;;;;;9.37;53.00;101070.41;5078685;28;20450;-79
2022/02/02 13:56:59;;;;;;;12.10;4.40;;;;;;;9.38;51.47;101085.19;5084332;28;20412;-81
2022/02/02 14:03:51;;;;;;;9.10;3.93;;;;;;;9.36;51.88;101102.50;5077090;28;20425;-76
2022/02/02 14:05:38;;;;;;;7.53;2.80;;;;;;;9.16;51.28;101101.19;5077363;28;20430;-74
2022/02/02 14:09:00;;;;;;;7.20;3.60;;;;;;;8.98;51.80;101105.16;5078176;28;20419;-76
2022/02/02 14:32:25;;;;;;;6.47;3.27;;;;;;;8.83;53.71;101151.63;5078159;28;20465;-80
2022/02/02 14:34:50;;;;;;;7.57;3.50;;;;;;;8.30;55.09;101171.09;5060291;28;20459;-79
2022/02/02 14:37:19;;;;;;;7.87;3.60;;;;;;;7.85;55.13;101189.78;5078950;28;20165;-78
2022/02/02 14:39:55;;;;;;;11.73;3.70;;;;;;;8.01;54.34;101186.78;5078168;28;20183;-76
2022/02/02 14:42:24;;;;;;;9.73;3.43;;;;;;;8.13;54.07;101183.63;5078204;28;20411;-77
2022/02/02 14:44:50;;;;;;;4.90;2.90;;;;;;;8.59;53.21;101182.25;5077655;28;20407;-77
2022/02/02 14:47:22;;;;;;;10.33;3.60;;;;;;;7.96;53.01;101188.38;5078049;28;20394;-80
2022/02/02 14:50:03;;;;;;;8.00;3.00;;;;;;;8.27;53.03;101189.19;5078104;28;20207;-76
2022/02/02 14:52:37;;;;;;;5.13;2.90;;;;;;;8.50;51.74;101195.00;5077561;28;20680;-76
2022/02/02 15:25:13;;;;;;;10.40;3.73;;;;;;;7.38;66.07;101261.06;5080658;28;20413;-78
2022/02/02 15:27:50;;;;;;;7.30;3.03;;;;;;;11.26;65.45;101251.81;5080788;28;20415;-61
2022/02/02 15:30:27;;;;;;;6.90;3.10;;;;;;;13.36;58.08;101242.75;5080800;28;20450;-61
2022/02/02 15:32:55;;;;;;;12.07;3.50;;;;;;;10.23;54.85;101252.63;5081034;28;20421;-82
2022/02/02 15:35:22;;;;;;;13.67;3.80;;;;;;;8.26;59.51;101265.34;5081328;28;20463;-79
2022/02/02 15:37:57;;;;;;;7.37;3.27;;;;;;;8.12;60.36;101272.78;5081710;28;20971;-83
2022/02/02 15:40:29;;;;;;;8.43;3.23;;;;;;;7.61;61.76;101281.66;5080870;28;20414;-77
2022/02/02 15:43:14;;;;;;;10.53;3.60;;;;;;;7.99;61.00;101292.31;5064175;28;20449;-81
2022/02/02 16:02:09;;;;;;;11.40;4.13;;;;;;;7.21;61.82;101334.88;5080154;28;20532;-75
2022/02/02 16:04:37;;;;;;;5.43;3.20;;;;;;;7.15;61.39;101335.53;5080109;28;20411;-73
2022/02/02 16:07:06;;;;;;;14.57;3.77;;;;;;;7.11;62.04;101332.81;5080226;28;20407;-75
2022/02/02 16:09:46;;;;;;;8.00;3.50;;;;;;;7.31;62.05;101333.47;5079932;28;20451;-76
2022/02/02 16:12:20;;;;;;;11.27;4.37;;;;;;;7.52;61.99;101336.75;5081067;28;20421;-78
2022/02/02 16:14:50;;;;;;;18.07;4.70;;;;;;;7.62;61.82;101343.13;5083155;28;20390;-76
2022/02/02 16:17:40;;;;;;;14.63;4.37;;;;;;;7.71;60.60;101350.28;5082302;28;20420;-77
2022/02/02 16:36:02;;;;;;;16.30;4.73;;;;;;;7.36;62.65;101370.78;5081211;28;20449;-75
2022/02/02 16:38:32;;;;;;;13.87;4.13;;;;;;;7.38;63.17;101371.75;5079814;28;20169;-76
2022/02/02 16:40:58;;;;;;;13.60;4.23;;;;;;;7.42;63.08;101374.47;5062984;28;20465;-80
2022/02/02 16:43:24;;;;;;;18.77;5.50;;;;;;;7.38;63.06;101380.38;5062001;28;20398;-78
2022/02/02 16:45:53;;;;;;;13.83;4.43;;;;;;;7.27;63.38;101386.94;5045358;28;20172;-77
2022/02/02 16:48:23;;;;;;;14.93;4.50;;;;;;;7.37;63.37;101381.25;5079806;28;20157;-80
2022/02/02 16:50:52;;;;;;;11.10;4.50;;;;;;;7.47;63.00;101391.91;5079043;28;20458;-77
2022/02/02 16:55:52;;;;;;;16.43;5.07;;;;;;;7.26;63.59;101392.97;5080159;28;20446;-76
2022/02/02 17:24:19;;;;;;;17.37;4.87;;;;;;;7.18;63.96;101392.69;5080206;28;20172;-79
2022/02/02 17:29:20;;;;;;;12.57;4.47;;;;;;;6.88;64.59;101442.63;5078322;28;20385;-78
2022/02/02 17:31:26;;;;;;;12.73;5.00;;;;;;;6.96;64.48;101444.66;5077264;28;20467;-77
2022/02/02 17:34:03;;;;;;;10.40;3.57;;;;;;;11.31;72.39;101428.50;5059367;28;20442;-63
2022/02/02 17:36:36;;;;;;;4.80;2.90;;;;;;;13.89;53.04;101414.25;5078155;28;20768;-63
2022/02/02 17:39:08;;;;;;;17.53;5.40;;;;;;;13.79;50.75;101417.69;5078422;28;20386;-62
2022/02/02 18:12:15;;;;;;;18.53;6.70;;;;;;;7.07;63.78;101472.69;5077985;28;20808;-73
2022/02/02 18:15:41;;;;;;;22.13;5.50;;;;;;;6.69;64.80;101492.03;5065583;28;20843;-73
2022/02/02 18:18:25;;;;;;;14.20;5.30;;;;;;;6.56;65.24;101499.34;5079567;28;20435;-75
2022/02/02 18:20:21;;;;;;;13.13;5.40;;;;;;;6.90;64.99;101489.34;5077761;28;20496;-74
2022/02/02 18:22:48;;;;;;;9.83;5.30;;;;;;;6.50;65.23;101498.25;5077974;28;20418;-74
2022/02/02 18:25:26;;;;;;;16.73;5.67;;;;;;;6.68;64.74;101503.22;5077716;28;20411;-77
2022/02/02 18:28:03;;;;;;;14.13;5.53;;;;;;;6.66;65.16;101494.53;5077932;28;20442;-76
2022/02/02 18:31:39;;;;;;;25.73;6.00;;;;;;;6.72;65.18;101490.47;5077782;28;20440;-75
2022/02/02 18:34:13;;;;;;;14.03;5.07;;;;;;;6.72;65.32;101490.47;5064460;28;20415;-75
2022/02/02 18:55:02;;;;;;;11.97;5.57;;;;;;;6.46;67.39;101491.16;5045586;28;20542;-77
2022/02/02 19:06:10;;;;;;;17.80;7.10;;;;;;;6.01;67.34;101492.00;5061525;28;20491;-77
2022/02/02 19:14:51;;;;;;;21.20;6.30;;;;;;;5.77;67.72;101491.84;5060819;28;20420;-77
2022/02/02 20:02:56;;;;;;;19.37;7.30;;;;;;;4.97;71.13;101492.78;5046765;28;20423;-72
2022/02/02 20:05:36;;;;;;;17.30;5.33;;;;;;;5.04;70.54;101492.22;5061611;28;20435;-76
2022/02/02 20:10:38;;;;;;;16.10;5.90;;;;;;;4.88;71.59;101489.78;5060831;28;20524;-74
2022/02/02 20:13:03;;;;;;;24.07;5.70;;;;;;;5.04;71.68;101487.06;5060305;28;20412;-76
2022/02/02 20:15:33;;;;;;;26.93;6.10;;;;;;;5.06;71.81;101489.72;5061368;28;20420;-76
2022/02/02 20:18:01;;;;;;;22.03;5.70;;;;;;;5.11;72.08;101493.38;5061631;28;20174;-74
2022/02/02 20:20:27;;;;;;;17.47;6.10;;;;;;;5.21;71.51;101490.38;5060684;28;20432;-75
2022/02/02 20:23:00;;;;;;;16.10;5.43;;;;;;;5.16;71.23;101497.06;5043374;28;20412;-76
2022/02/02 20:25:26;;;;;;;18.13;5.60;;;;;;;5.02;71.75;101493.88;5060265;28;20260;-76
2022/02/02 20:28:02;;;;;;;21.50;5.83;;;;;;;4.88;72.48;101492.34;5042489;28;20452;-76
2022/02/02 20:30:27;;;;;;;18.43;7.00;;;;;;;4.93;72.16;101496.03;5059956;28;20608;-72
2022/02/02 20:32:52;;;;;;;22.80;6.37;;;;;;;4.87;72.63;101490.59;5059616;28;20518;-73
2022/02/02 20:35:18;;;;;;;16.97;7.00;;;;;;;5.09;72.36;101499.28;5059756;28;20222;-73
2022/02/02 20:37:43;;;;;;;17.97;5.80;;;;;;;5.01;72.29;101492.09;5059989;28;20196;-72
2022/02/02 20:40:09;;;;;;;21.23;5.37;;;;;;;4.68;73.61;101497.53;5060014;28;20455;-74
2022/02/02 21:14:46;;;;;;;12.60;5.73;;;;;;;4.62;74.58;101517.88;5041493;28;20408;-74
2022/02/02 21:17:19;;;;;;;7.80;4.97;;;;;;;4.52;74.79;101520.88;5058667;28;20169;-72
2022/02/02 21:22:21;;;;;;;13.10;5.73;;;;;;;4.58;75.12;101513.38;5058977;28;20407;-72
2022/02/02 21:25:07;;;;;;;15.47;5.30;;;;;;;4.43;74.81;101515.28;5058773;28;20681;-76
2022/02/02 21:27:39;;;;;;;14.80;5.40;;;;;;;4.25;75.32;101502.34;5058593;28;20416;-74
2022/02/02 21:30:08;;;;;;;13.40;5.57;;;;;;;4.28;76.03;101508.56;5058834;28;20730;-73
2022/02/02 21:32:33;;;;;;;15.67;6.03;;;;;;;4.58;75.02;101504.78;5058779;28;20819;-74
2022/02/02 21:35:04;;;;;;;19.50;6.53;;;;;;;4.65;75.45;101507.69;5066361;28;20459;-74
2022/02/02 21:37:33;;;;;;;24.83;5.90;;;;;;;4.18;75.99;101511.50;5078555;28;20168;-76
2022/02/02 21:40:15;;;;;;;13.57;6.47;;;;;;;4.44;75.68;101506.69;5078942;28;20421;-73